createdAt,value
2018-12-20T00:01:36.306Z,0.30
2018-12-20T00:06:48.036Z,0.20
2018-12-20T00:09:21.211Z,0.20
2018-12-20T00:11:58.642Z,0.20
2018-12-20T00:14:30.235Z,0.20
2018-12-20T00:19:52.392Z,0.10
2018-12-20T00:22:22.487Z,0.10
2018-12-20T00:25:00.081Z,0.10
2018-12-20T00:27:53.993Z,0.10
2018-12-20T00:30:23.575Z,0.10
2018-12-20T00:33:25.498Z,0.10
2018-12-20T00:35:56.632Z,0.10
2018-12-20T00:38:35.001Z,0.00
2018-12-20T00:44:07.038Z,0.10
2018-12-20T00:46:37.264Z,0.00
2018-12-20T00:49:07.609Z,0.10
2018-12-20T00:59:59.324Z,0.10
2018-12-20T01:05:18.324Z,0.10
2018-12-20T01:08:04.951Z,0.10
2018-12-20T01:10:43.833Z,0.10
2018-12-20T01:18:06.349Z,0.10
2018-12-20T01:20:36.832Z,0.10
2018-12-20T01:23:09.228Z,0.10
2018-12-20T01:28:29.125Z,0.10
2018-12-20T01:33:08.106Z,0.10
2018-12-20T01:35:38.163Z,0.10
2018-12-20T01:44:01.231Z,0.10
2018-12-20T01:46:31.685Z,0.10
2018-12-20T01:49:02.830Z,0.10
2018-12-20T02:01:05.929Z,0.10
2018-12-20T02:13:02.542Z,0.10
2018-12-20T02:15:44.937Z,0.10
2018-12-20T02:21:26.970Z,0.20
2018-12-20T02:24:13.546Z,0.10
2018-12-20T02:30:04.494Z,0.20
2018-12-20T02:32:34.640Z,0.20
2018-12-20T02:38:25.583Z,0.20
2018-12-20T02:40:59.307Z,0.20
2018-12-20T02:44:12.328Z,0.20
2018-12-20T02:47:45.313Z,0.20
2018-12-20T02:50:14.401Z,0.30
2018-12-20T02:52:43.825Z,0.30
2018-12-20T03:01:27.241Z,0.30
2018-12-20T03:04:05.512Z,0.30
2018-12-20T03:06:57.371Z,0.30
2018-12-20T03:13:24.822Z,0.30
2018-12-20T03:16:30.956Z,0.40
2018-12-20T03:21:55.338Z,0.30
2018-12-20T03:24:34.737Z,0.30
2018-12-20T03:28:32.351Z,0.30
2018-12-20T03:45:01.633Z,0.40
2018-12-20T03:47:31.911Z,0.30
2018-12-20T03:50:15.877Z,0.30
2018-12-20T03:55:56.428Z,0.30
2018-12-20T04:07:17.089Z,0.40
2018-12-20T04:09:48.729Z,0.40
2018-12-20T04:18:21.385Z,0.40
2018-12-20T04:20:52.223Z,0.40
2018-12-20T04:23:54.672Z,0.40
2018-12-20T04:26:28.618Z,0.40
2018-12-20T04:29:03.883Z,0.40
2018-12-20T04:34:22.616Z,0.40
2018-12-20T04:37:10.502Z,0.40
2018-12-20T04:39:45.532Z,0.40
2018-12-20T04:42:18.530Z,0.40
2018-12-20T04:44:56.834Z,0.40
2018-12-20T04:50:12.289Z,0.40
2018-12-20T04:52:45.282Z,0.40
2018-12-20T04:55:20.880Z,0.40
2018-12-20T05:03:17.070Z,0.40
2018-12-20T05:05:54.723Z,0.40
2018-12-20T05:49:41.816Z,0.60
2018-12-20T07:07:46.291Z,0.60
2018-12-20T07:23:14.939Z,0.60
2018-12-20T07:30:56.378Z,0.60
2018-12-20T07:33:34.534Z,0.60
2018-12-20T07:36:15.094Z,0.60
2018-12-20T07:45:25.332Z,0.60
2018-12-20T07:48:15.074Z,0.60
2018-12-20T09:02:53.476Z,0.70
2018-12-20T09:05:21.428Z,0.70
2018-12-20T09:21:38.577Z,0.70
2018-12-20T09:28:26.273Z,0.60
2018-12-20T10:45:05.790Z,0.60
2018-12-20T11:01:49.036Z,0.60
2018-12-20T11:04:20.962Z,0.60
2018-12-20T11:07:27.293Z,0.60
2018-12-20T11:14:39.903Z,0.60
2018-12-20T11:17:07.439Z,0.60
2018-12-20T12:18:30.539Z,0.60
2018-12-20T12:21:23.075Z,0.60
2018-12-20T13:08:12.509Z,0.50
2018-12-20T14:55:00.975Z,0.50
2018-12-20T15:22:59.988Z,0.60
2018-12-20T16:15:38.585Z,0.40
2018-12-20T18:21:11.989Z,0.50
2018-12-20T18:34:01.315Z,0.40
2018-12-20T20:18:05.091Z,0.40
2018-12-20T20:33:17.888Z,0.50
2018-12-20T21:41:24.329Z,0.30
2018-12-20T21:43:52.107Z,0.30
2018-12-20T21:46:19.587Z,0.30
2018-12-20T21:48:47.071Z,0.30
2018-12-20T21:51:14.523Z,0.30
2018-12-20T21:53:42.106Z,0.30
2018-12-20T21:56:09.583Z,0.30
2018-12-20T21:58:37.052Z,0.30
2018-12-20T22:01:04.557Z,0.30
2018-12-20T22:03:32.071Z,0.30
2018-12-20T22:05:59.526Z,0.30
2018-12-20T22:08:27.051Z,0.30
2018-12-20T22:10:54.551Z,0.30
2018-12-20T22:13:22.028Z,0.40
2018-12-20T22:15:49.514Z,0.40
2018-12-20T22:18:16.982Z,0.40
2018-12-20T22:20:47.512Z,0.40
2018-12-20T22:23:13.982Z,0.40
2018-12-20T22:25:41.514Z,0.40
2018-12-20T22:28:09.023Z,0.40
2018-12-20T22:30:36.564Z,0.40
2018-12-20T22:33:04.167Z,0.40
2018-12-20T22:35:31.953Z,0.40
2018-12-20T22:37:59.638Z,0.40
2018-12-20T22:40:27.269Z,0.40
2018-12-20T22:42:55.042Z,0.40
2018-12-20T22:45:23.106Z,0.40
2018-12-20T22:47:50.736Z,0.40
2018-12-20T22:50:18.205Z,0.50
2018-12-20T22:52:45.791Z,0.40
2018-12-20T22:55:13.280Z,0.40
2018-12-20T22:57:40.991Z,0.40
2018-12-20T23:00:11.386Z,0.40
2018-12-20T23:02:40.129Z,0.40
2018-12-20T23:05:08.351Z,0.40
2018-12-20T23:07:36.001Z,0.40
2018-12-20T23:10:04.049Z,0.40
2018-12-20T23:12:31.565Z,0.40
2018-12-20T23:14:59.083Z,0.40
2018-12-20T23:17:26.656Z,0.40
2018-12-20T23:19:54.278Z,0.40
2018-12-20T23:22:21.951Z,0.40
2018-12-20T23:24:49.500Z,0.50
2018-12-20T23:27:17.002Z,0.50
2018-12-20T23:29:44.555Z,0.40
2018-12-20T23:32:12.084Z,0.40
2018-12-20T23:34:39.595Z,0.40
2018-12-20T23:37:07.109Z,0.40
2018-12-20T23:39:34.804Z,0.40
2018-12-20T23:42:02.275Z,0.40
2018-12-20T23:44:30.458Z,0.50
2018-12-20T23:46:58.106Z,0.50
2018-12-20T23:49:25.582Z,0.50
2018-12-20T23:51:53.198Z,0.40
2018-12-20T23:54:20.716Z,0.40
2018-12-20T23:56:48.240Z,0.40
2018-12-20T23:59:15.779Z,0.40
